• Join FlightAware (Why Join?)
  • Login
  • US Flag 
01:56AM EDT


 

Airport Tracker/Info


-or-


 

Live Flight TrackerFlight Track Log ✈ CES2231 ✈ 26-Oct-2013 ✈ ZLXY / XIY - ZUJZ / JZH

Flight Track Log - Related Links

Times and Time Zones

All times are in EDT time to prevent confusion due to time zone crossing. See the CES2231 flight status page for this flight to view local times or setup timezone preferences in your user account.

Time Position Orientation Groundspeed Altitude Reporting Facility
EDT Latitude Longitude Course Direction KTS MPH feet Rate Location/Type
06:30AM 34.0752 107.4872 251° West  Level Estimated
06:31AM 34.0500 107.4033 250° West  Level Estimated
06:32AM 34.0247 107.3194 250° West  Level Estimated
06:33AM 33.9993 107.2356 250° West  Level Estimated
06:34AM 33.9739 107.1519 250° West  Level Estimated
06:35AM 33.9484 107.0682 250° West  Level Estimated
06:36AM 33.9229 106.9845 250° West  Level Estimated
06:37AM 33.8973 106.9009 250° West  Level Estimated
06:38AM 33.8716 106.8174 250° West  Level Estimated
06:39AM 33.8459 106.7339 250° West  Level Estimated
06:40AM 33.8201 106.6504 250° West  Level Estimated
06:41AM 33.7943 106.5670 250° West  Level Estimated
06:42AM 33.7685 106.4837 250° West  Level Estimated
06:43AM 33.7425 106.4004 249° West  Level Estimated
06:44AM 33.7165 106.3172 249° West  Level Estimated
06:45AM 33.6905 106.2340 249° West  Level Estimated
06:46AM 33.6644 106.1508 249° West  Level Estimated
06:47AM 33.6382 106.0677 249° West  Level Estimated
06:48AM 33.6120 105.9847 249° West  Level Estimated
06:49AM 33.5858 105.9017 249° West  Level Estimated
06:50AM 33.5595 105.8188 249° West  Level Estimated
06:51AM 33.5331 105.7359 249° West  Level Estimated
06:52AM 33.5067 105.6530 249° West  Level Estimated
06:53AM 33.4802 105.5703 249° West  Level Estimated
06:54AM 33.4536 105.4875 249° West  Level Estimated
06:55AM 33.4271 105.4048 249° West  Level Estimated
06:56AM 33.4004 105.3222 249° West  Level Estimated
06:57AM 33.3737 105.2396 249° West  Level Estimated
06:58AM 33.3469 105.1571 249° West  Level Estimated
06:59AM 33.3201 105.0746 249° West  Level Estimated
07:00AM 33.2933 104.9921 249° West  Level Estimated
07:01AM 33.2663 104.9098 249° West  Level Estimated
07:02AM 33.2394 104.8274 249° West  Level Estimated
07:03AM 33.2123 104.7451 249° West  Level Estimated
07:04AM 33.1852 104.6629 249° West  Level Estimated
07:05AM 33.1581 104.5807 248° West  Level Estimated
07:06AM 33.1309 104.4986 248° West  Level Estimated
07:07AM 33.1037 104.4165 248° West  Level Estimated
07:07AM 32.3160 104.5740 248° West 329 379 23,600  Level FlightAware
07:07AM 32.3370 104.5180 294° West 330 380 23,600  Level FlightAware
07:08AM 33.0764 104.3345 248° West  Level Estimated
07:08AM 32.3580 104.4600 293° West 330 380 23,600  Level FlightAware
07:09AM 32.3810 104.3980 294° West 330 380 23,600  Level FlightAware
07:09AM 32.4030 104.3370 293° West 333 383 23,600 -900 Level FlightAware
07:10AM 32.4170 104.2570 282° West 334 384 22,400 -1,740 Descending FlightAware
07:11AM 32.4390 104.1910 292° West 329 379 21,200 -840 Descending FlightAware
07:11AM 32.4680 104.1230 297° West 329 379 21,200  Level FlightAware
07:12AM 32.4900 104.0720 297° West 329 379 21,200  Level FlightAware
07:13AM 32.5110 104.0230 297° West 329 379 21,200  Level FlightAware
07:13AM 32.5320 103.9740 297° West 329 379 21,200  Level FlightAware
07:14AM 32.5530 103.9250 297° West 329 379 21,200  Level FlightAware
07:14AM 32.5740 103.8760 297° West 329 379 21,200  Level FlightAware
07:18AM 32.7686 103.7434 330° Northwest  Level Estimated
07:19AM 32.8327 103.6996 330° Northwest  Level Estimated
07:20AM 32.8570 103.6830 330° Northwest  Level Estimated
07:21AM 32.8570 103.6830 North  Level Estimated
07:22AM 32.8570 103.6830 North  Level Estimated
07:23AM 32.8570 103.6830 North  Level Estimated
07:24AM 32.8570 103.6830 North  Level Estimated
07:25AM 32.8570 103.6830 North  Level Estimated
07:26AM 32.8570 103.6830 North  Level Estimated
07:27AM 32.8570 103.6830 North  Level Estimated
07:28AM 32.8570 103.6830 North  Level Estimated
07:29AM 32.8570 103.6830 North  Level Estimated
07:30AM 32.8570 103.6830 North  Level Estimated
07:31AM 32.8570 103.6830 North  Level Estimated